sensor_id;sensor_type;location;lat;lon;timestamp;P1;durP1;ratioP1;P2;durP2;ratioP2
46607;SDS011;32330;51.936;7.184;2024-03-29T00:00:04;2.53;;;0.68;;
46607;SDS011;32330;51.936;7.184;2024-03-29T00:02:38;5.00;;;1.05;;
46607;SDS011;32330;51.936;7.184;2024-03-29T00:05:04;4.25;;;1.00;;
46607;SDS011;32330;51.936;7.184;2024-03-29T00:07:30;3.72;;;1.40;;
46607;SDS011;32330;51.936;7.184;2024-03-29T00:09:57;3.90;;;0.80;;
46607;SDS011;32330;51.936;7.184;2024-03-29T00:12:24;4.13;;;0.90;;
46607;SDS011;32330;51.936;7.184;2024-03-29T00:14:50;3.80;;;0.80;;
46607;SDS011;32330;51.936;7.184;2024-03-29T00:17:16;4.75;;;0.90;;
46607;SDS011;32330;51.936;7.184;2024-03-29T00:19:43;4.25;;;1.15;;
46607;SDS011;32330;51.936;7.184;2024-03-29T00:22:09;4.85;;;1.02;;
46607;SDS011;32330;51.936;7.184;2024-03-29T00:24:35;2.38;;;1.08;;
46607;SDS011;32330;51.936;7.184;2024-03-29T00:27:01;5.50;;;1.33;;
46607;SDS011;32330;51.936;7.184;2024-03-29T00:29:29;2.65;;;0.82;;
46607;SDS011;32330;51.936;7.184;2024-03-29T00:31:55;4.93;;;1.20;;
46607;SDS011;32330;51.936;7.184;2024-03-29T00:34:21;3.53;;;0.90;;
46607;SDS011;32330;51.936;7.184;2024-03-29T00:36:47;5.28;;;1.38;;
46607;SDS011;32330;51.936;7.184;2024-03-29T00:39:14;3.60;;;0.88;;
46607;SDS011;32330;51.936;7.184;2024-03-29T00:41:40;2.47;;;0.70;;
46607;SDS011;32330;51.936;7.184;2024-03-29T00:44:06;3.05;;;0.70;;
46607;SDS011;32330;51.936;7.184;2024-03-29T00:46:33;4.15;;;1.10;;
46607;SDS011;32330;51.936;7.184;2024-03-29T00:48:59;4.25;;;1.00;;
46607;SDS011;32330;51.936;7.184;2024-03-29T00:51:25;3.05;;;0.90;;
46607;SDS011;32330;51.936;7.184;2024-03-29T00:53:52;3.13;;;0.90;;
46607;SDS011;32330;51.936;7.184;2024-03-29T00:56:18;7.80;;;1.40;;
46607;SDS011;32330;51.936;7.184;2024-03-29T00:58:44;3.88;;;0.90;;
46607;SDS011;32330;51.936;7.184;2024-03-29T01:01:10;2.55;;;0.70;;
46607;SDS011;32330;51.936;7.184;2024-03-29T01:03:37;4.72;;;1.27;;
46607;SDS011;32330;51.936;7.184;2024-03-29T01:06:04;3.72;;;0.85;;
46607;SDS011;32330;51.936;7.184;2024-03-29T01:08:30;3.65;;;0.73;;
46607;SDS011;32330;51.936;7.184;2024-03-29T01:10:56;4.70;;;1.02;;
46607;SDS011;32330;51.936;7.184;2024-03-29T01:13:22;4.40;;;0.80;;
46607;SDS011;32330;51.936;7.184;2024-03-29T01:15:48;2.13;;;0.60;;
46607;SDS011;32330;51.936;7.184;2024-03-29T01:18:14;2.83;;;0.77;;
46607;SDS011;32330;51.936;7.184;2024-03-29T01:20:42;5.00;;;1.00;;
46607;SDS011;32330;51.936;7.184;2024-03-29T01:23:08;4.35;;;1.00;;
46607;SDS011;32330;51.936;7.184;2024-03-29T01:25:34;4.65;;;0.75;;
46607;SDS011;32330;51.936;7.184;2024-03-29T01:28:00;1.88;;;0.68;;
46607;SDS011;32330;51.936;7.184;2024-03-29T01:30:26;3.78;;;0.98;;
46607;SDS011;32330;51.936;7.184;2024-03-29T01:32:52;3.35;;;0.85;;
46607;SDS011;32330;51.936;7.184;2024-03-29T01:35:18;4.68;;;0.93;;
46607;SDS011;32330;51.936;7.184;2024-03-29T01:37:46;4.00;;;0.73;;
46607;SDS011;32330;51.936;7.184;2024-03-29T01:40:12;3.15;;;0.88;;
46607;SDS011;32330;51.936;7.184;2024-03-29T01:42:38;3.70;;;0.85;;
46607;SDS011;32330;51.936;7.184;2024-03-29T01:45:05;3.88;;;0.70;;
46607;SDS011;32330;51.936;7.184;2024-03-29T01:47:34;5.60;;;1.00;;
46607;SDS011;32330;51.936;7.184;2024-03-29T01:50:01;2.72;;;0.77;;
46607;SDS011;32330;51.936;7.184;2024-03-29T01:52:29;1.67;;;0.50;;
46607;SDS011;32330;51.936;7.184;2024-03-29T01:54:58;3.28;;;0.80;;
46607;SDS011;32330;51.936;7.184;2024-03-29T01:57:25;3.83;;;1.00;;
46607;SDS011;32330;51.936;7.184;2024-03-29T01:59:53;3.80;;;1.02;;
46607;SDS011;32330;51.936;7.184;2024-03-29T02:02:20;5.60;;;0.90;;
46607;SDS011;32330;51.936;7.184;2024-03-29T02:04:47;2.45;;;0.73;;
46607;SDS011;32330;51.936;7.184;2024-03-29T02:07:16;3.90;;;1.23;;
46607;SDS011;32330;51.936;7.184;2024-03-29T02:09:43;2.97;;;1.00;;
46607;SDS011;32330;51.936;7.184;2024-03-29T02:12:11;2.80;;;0.52;;
46607;SDS011;32330;51.936;7.184;2024-03-29T02:14:38;3.88;;;0.60;;
46607;SDS011;32330;51.936;7.184;2024-03-29T02:17:07;3.33;;;0.77;;
46607;SDS011;32330;51.936;7.184;2024-03-29T02:19:34;3.45;;;1.13;;
46607;SDS011;32330;51.936;7.184;2024-03-29T02:22:01;5.60;;;1.00;;
46607;SDS011;32330;51.936;7.184;2024-03-29T02:24:32;3.08;;;1.17;;
46607;SDS011;32330;51.936;7.184;2024-03-29T02:27:00;5.57;;;0.70;;
46607;SDS011;32330;51.936;7.184;2024-03-29T02:29:29;2.63;;;0.80;;
46607;SDS011;32330;51.936;7.184;2024-03-29T02:31:57;1.77;;;0.60;;
46607;SDS011;32330;51.936;7.184;2024-03-29T02:34:24;4.57;;;1.00;;
46607;SDS011;32330;51.936;7.184;2024-03-29T02:36:52;3.30;;;0.88;;
46607;SDS011;32330;51.936;7.184;2024-03-29T02:39:19;3.15;;;0.88;;
46607;SDS011;32330;51.936;7.184;2024-03-29T02:41:47;6.40;;;0.93;;
46607;SDS011;32330;51.936;7.184;2024-03-29T02:44:15;4.47;;;0.98;;
46607;SDS011;32330;51.936;7.184;2024-03-29T02:46:42;2.92;;;0.77;;
46607;SDS011;32330;51.936;7.184;2024-03-29T02:49:09;3.22;;;0.85;;
46607;SDS011;32330;51.936;7.184;2024-03-29T02:51:35;2.50;;;0.70;;
46607;SDS011;32330;51.936;7.184;2024-03-29T02:54:02;3.20;;;0.90;;
46607;SDS011;32330;51.936;7.184;2024-03-29T02:56:28;2.50;;;0.70;;
46607;SDS011;32330;51.936;7.184;2024-03-29T02:58:57;5.82;;;1.13;;
46607;SDS011;32330;51.936;7.184;2024-03-29T03:01:25;3.65;;;1.30;;
46607;SDS011;32330;51.936;7.184;2024-03-29T03:03:51;3.30;;;1.17;;
46607;SDS011;32330;51.936;7.184;2024-03-29T03:06:18;3.90;;;1.42;;
46607;SDS011;32330;51.936;7.184;2024-03-29T03:08:44;5.03;;;1.30;;
46607;SDS011;32330;51.936;7.184;2024-03-29T03:11:28;2.67;;;1.15;;
46607;SDS011;32330;51.936;7.184;2024-03-29T03:13:55;1.73;;;0.75;;
46607;SDS011;32330;51.936;7.184;2024-03-29T03:16:24;3.70;;;0.93;;
46607;SDS011;32330;51.936;7.184;2024-03-29T03:18:51;2.40;;;1.15;;
46607;SDS011;32330;51.936;7.184;2024-03-29T03:21:17;2.92;;;0.88;;
46607;SDS011;32330;51.936;7.184;2024-03-29T03:23:44;2.95;;;0.60;;
46607;SDS011;32330;51.936;7.184;2024-03-29T03:26:11;3.80;;;1.10;;
46607;SDS011;32330;51.936;7.184;2024-03-29T03:28:37;2.50;;;0.50;;
46607;SDS011;32330;51.936;7.184;2024-03-29T03:31:05;2.75;;;0.82;;
46607;SDS011;32330;51.936;7.184;2024-03-29T03:33:32;1.88;;;0.70;;
46607;SDS011;32330;51.936;7.184;2024-03-29T03:35:59;2.80;;;1.13;;
46607;SDS011;32330;51.936;7.184;2024-03-29T03:38:25;3.25;;;0.80;;
46607;SDS011;32330;51.936;7.184;2024-03-29T03:40:53;3.47;;;0.75;;
46607;SDS011;32330;51.936;7.184;2024-03-29T03:43:19;4.90;;;0.90;;
46607;SDS011;32330;51.936;7.184;2024-03-29T03:45:46;2.80;;;0.75;;
46607;SDS011;32330;51.936;7.184;2024-03-29T03:48:14;4.95;;;1.20;;
46607;SDS011;32330;51.936;7.184;2024-03-29T03:50:41;2.42;;;1.00;;
46607;SDS011;32330;51.936;7.184;2024-03-29T03:53:07;4.65;;;1.75;;
46607;SDS011;32330;51.936;7.184;2024-03-29T03:55:35;3.45;;;1.30;;
46607;SDS011;32330;51.936;7.184;2024-03-29T03:58:01;6.50;;;1.70;;
46607;SDS011;32330;51.936;7.184;2024-03-29T04:00:29;1.73;;;0.80;;
46607;SDS011;32330;51.936;7.184;2024-03-29T04:02:55;1.80;;;0.50;;
46607;SDS011;32330;51.936;7.184;2024-03-29T04:05:24;6.10;;;0.88;;
46607;SDS011;32330;51.936;7.184;2024-03-29T04:07:51;1.40;;;0.50;;
46607;SDS011;32330;51.936;7.184;2024-03-29T04:10:18;1.45;;;0.50;;
46607;SDS011;32330;51.936;7.184;2024-03-29T04:12:44;2.47;;;0.60;;
46607;SDS011;32330;51.936;7.184;2024-03-29T04:15:11;2.33;;;0.70;;
46607;SDS011;32330;51.936;7.184;2024-03-29T04:17:37;2.88;;;0.70;;
46607;SDS011;32330;51.936;7.184;2024-03-29T04:20:05;1.77;;;0.60;;
46607;SDS011;32330;51.936;7.184;2024-03-29T04:22:33;1.30;;;0.38;;
46607;SDS011;32330;51.936;7.184;2024-03-29T04:25:00;3.47;;;0.60;;
46607;SDS011;32330;51.936;7.184;2024-03-29T04:27:27;1.33;;;0.60;;
46607;SDS011;32330;51.936;7.184;2024-03-29T04:29:54;3.53;;;0.90;;
46607;SDS011;32330;51.936;7.184;2024-03-29T04:32:20;2.13;;;0.50;;
46607;SDS011;32330;51.936;7.184;2024-03-29T04:34:48;2.55;;;0.63;;
46607;SDS011;32330;51.936;7.184;2024-03-29T04:37:14;3.85;;;0.47;;
46607;SDS011;32330;51.936;7.184;2024-03-29T04:39:43;2.33;;;0.60;;
46607;SDS011;32330;51.936;7.184;2024-03-29T04:42:11;2.20;;;0.70;;
46607;SDS011;32330;51.936;7.184;2024-03-29T04:44:40;2.10;;;0.98;;
46607;SDS011;32330;51.936;7.184;2024-03-29T04:47:07;1.95;;;0.55;;
46607;SDS011;32330;51.936;7.184;2024-03-29T04:49:34;5.82;;;0.80;;
46607;SDS011;32330;51.936;7.184;2024-03-29T04:52:02;2.78;;;0.70;;
46607;SDS011;32330;51.936;7.184;2024-03-29T04:54:29;1.73;;;0.50;;
46607;SDS011;32330;51.936;7.184;2024-03-29T04:56:58;1.65;;;0.50;;
46607;SDS011;32330;51.936;7.184;2024-03-29T04:59:26;4.95;;;1.02;;
46607;SDS011;32330;51.936;7.184;2024-03-29T05:01:54;6.10;;;0.90;;
46607;SDS011;32330;51.936;7.184;2024-03-29T05:04:22;2.70;;;0.75;;
46607;SDS011;32330;51.936;7.184;2024-03-29T05:06:51;2.55;;;0.68;;
46607;SDS011;32330;51.936;7.184;2024-03-29T05:09:19;4.43;;;1.60;;
46607;SDS011;32330;51.936;7.184;2024-03-29T05:11:47;4.82;;;1.70;;
46607;SDS011;32330;51.936;7.184;2024-03-29T05:14:15;3.58;;;1.75;;
46607;SDS011;32330;51.936;7.184;2024-03-29T05:16:43;2.22;;;0.80;;
46607;SDS011;32330;51.936;7.184;2024-03-29T05:19:11;3.95;;;0.80;;
46607;SDS011;32330;51.936;7.184;2024-03-29T05:21:38;1.30;;;0.50;;
46607;SDS011;32330;51.936;7.184;2024-03-29T05:24:05;1.58;;;0.70;;
46607;SDS011;32330;51.936;7.184;2024-03-29T05:26:32;2.00;;;0.60;;
46607;SDS011;32330;51.936;7.184;2024-03-29T05:29:00;1.70;;;0.57;;
46607;SDS011;32330;51.936;7.184;2024-03-29T05:31:31;3.40;;;0.60;;
46607;SDS011;32330;51.936;7.184;2024-03-29T05:33:58;3.13;;;1.00;;
46607;SDS011;32330;51.936;7.184;2024-03-29T05:36:27;3.00;;;0.70;;
46607;SDS011;32330;51.936;7.184;2024-03-29T05:38:54;2.92;;;0.70;;
46607;SDS011;32330;51.936;7.184;2024-03-29T05:41:21;1.85;;;0.60;;
46607;SDS011;32330;51.936;7.184;2024-03-29T05:43:49;3.80;;;1.13;;
46607;SDS011;32330;51.936;7.184;2024-03-29T05:46:16;2.33;;;0.70;;
46607;SDS011;32330;51.936;7.184;2024-03-29T05:48:45;1.65;;;0.55;;
46607;SDS011;32330;51.936;7.184;2024-03-29T05:51:12;1.88;;;0.70;;
46607;SDS011;32330;51.936;7.184;2024-03-29T05:53:39;3.83;;;0.80;;
46607;SDS011;32330;51.936;7.184;2024-03-29T05:56:07;3.38;;;0.70;;
46607;SDS011;32330;51.936;7.184;2024-03-29T05:58:34;3.13;;;0.63;;
46607;SDS011;32330;51.936;7.184;2024-03-29T06:01:01;2.17;;;0.60;;
46607;SDS011;32330;51.936;7.184;2024-03-29T06:03:28;3.15;;;0.57;;
46607;SDS011;32330;51.936;7.184;2024-03-29T06:05:57;3.22;;;0.50;;
46607;SDS011;32330;51.936;7.184;2024-03-29T06:08:24;1.85;;;0.68;;
46607;SDS011;32330;51.936;7.184;2024-03-29T06:10:52;3.22;;;0.70;;
46607;SDS011;32330;51.936;7.184;2024-03-29T06:13:19;2.47;;;0.60;;
46607;SDS011;32330;51.936;7.184;2024-03-29T06:16:16;3.28;;;0.77;;
46607;SDS011;32330;51.936;7.184;2024-03-29T06:19:00;3.05;;;0.90;;
46607;SDS011;32330;51.936;7.184;2024-03-29T06:21:30;2.55;;;0.70;;
46607;SDS011;32330;51.936;7.184;2024-03-29T06:24:04;2.88;;;0.60;;
46607;SDS011;32330;51.936;7.184;2024-03-29T06:26:31;1.92;;;0.60;;
46607;SDS011;32330;51.936;7.184;2024-03-29T06:28:59;1.80;;;0.52;;
46607;SDS011;32330;51.936;7.184;2024-03-29T06:31:26;3.80;;;1.20;;
46607;SDS011;32330;51.936;7.184;2024-03-29T06:33:54;1.35;;;0.60;;
46607;SDS011;32330;51.936;7.184;2024-03-29T06:36:21;3.13;;;1.15;;
46607;SDS011;32330;51.936;7.184;2024-03-29T06:38:50;2.10;;;0.75;;
46607;SDS011;32330;51.936;7.184;2024-03-29T06:41:17;2.20;;;0.77;;
46607;SDS011;32330;51.936;7.184;2024-03-29T06:43:44;4.10;;;1.75;;
46607;SDS011;32330;51.936;7.184;2024-03-29T06:46:11;3.53;;;1.13;;
46607;SDS011;32330;51.936;7.184;2024-03-29T06:48:39;2.70;;;0.80;;
46607;SDS011;32330;51.936;7.184;2024-03-29T06:51:06;2.72;;;1.17;;
46607;SDS011;32330;51.936;7.184;2024-03-29T06:53:34;3.05;;;1.13;;
46607;SDS011;32330;51.936;7.184;2024-03-29T06:56:03;3.50;;;0.82;;
46607;SDS011;32330;51.936;7.184;2024-03-29T06:58:30;3.13;;;0.80;;
46607;SDS011;32330;51.936;7.184;2024-03-29T07:00:58;2.90;;;0.70;;
46607;SDS011;32330;51.936;7.184;2024-03-29T07:03:25;2.15;;;0.70;;
46607;SDS011;32330;51.936;7.184;2024-03-29T07:05:52;3.13;;;1.13;;
46607;SDS011;32330;51.936;7.184;2024-03-29T07:08:19;4.70;;;0.98;;
46607;SDS011;32330;51.936;7.184;2024-03-29T07:10:46;2.35;;;0.95;;
46607;SDS011;32330;51.936;7.184;2024-03-29T07:13:15;4.18;;;1.00;;
46607;SDS011;32330;51.936;7.184;2024-03-29T07:15:50;3.13;;;1.08;;
46607;SDS011;32330;51.936;7.184;2024-03-29T07:18:17;4.68;;;1.10;;
46607;SDS011;32330;51.936;7.184;2024-03-29T07:20:44;1.73;;;0.82;;
46607;SDS011;32330;51.936;7.184;2024-03-29T07:23:12;3.33;;;1.08;;
46607;SDS011;32330;51.936;7.184;2024-03-29T07:25:39;3.85;;;1.20;;
46607;SDS011;32330;51.936;7.184;2024-03-29T07:28:07;2.55;;;0.90;;
46607;SDS011;32330;51.936;7.184;2024-03-29T07:30:36;2.78;;;0.88;;
46607;SDS011;32330;51.936;7.184;2024-03-29T07:33:04;3.70;;;1.13;;
46607;SDS011;32330;51.936;7.184;2024-03-29T07:35:31;5.63;;;1.15;;
46607;SDS011;32330;51.936;7.184;2024-03-29T07:37:59;2.60;;;0.80;;
46607;SDS011;32330;51.936;7.184;2024-03-29T07:40:26;3.67;;;1.05;;
46607;SDS011;32330;51.936;7.184;2024-03-29T07:42:53;3.28;;;1.00;;
46607;SDS011;32330;51.936;7.184;2024-03-29T07:45:21;3.35;;;1.40;;
46607;SDS011;32330;51.936;7.184;2024-03-29T07:47:49;3.67;;;1.13;;
46607;SDS011;32330;51.936;7.184;2024-03-29T07:50:18;3.72;;;1.13;;
46607;SDS011;32330;51.936;7.184;2024-03-29T07:52:45;2.83;;;1.10;;
46607;SDS011;32330;51.936;7.184;2024-03-29T07:55:12;4.82;;;2.63;;
46607;SDS011;32330;51.936;7.184;2024-03-29T07:57:40;5.03;;;1.77;;
46607;SDS011;32330;51.936;7.184;2024-03-29T08:00:12;2.80;;;1.23;;
46607;SDS011;32330;51.936;7.184;2024-03-29T08:02:40;4.07;;;1.20;;
46607;SDS011;32330;51.936;7.184;2024-03-29T08:05:21;3.13;;;1.08;;
46607;SDS011;32330;51.936;7.184;2024-03-29T08:07:49;3.35;;;1.10;;
46607;SDS011;32330;51.936;7.184;2024-03-29T08:10:16;6.75;;;1.38;;
46607;SDS011;32330;51.936;7.184;2024-03-29T08:12:43;3.28;;;1.02;;
46607;SDS011;32330;51.936;7.184;2024-03-29T08:15:10;4.97;;;1.10;;
46607;SDS011;32330;51.936;7.184;2024-03-29T08:17:38;2.67;;;1.00;;
46607;SDS011;32330;51.936;7.184;2024-03-29T08:20:05;3.72;;;1.67;;
46607;SDS011;32330;51.936;7.184;2024-03-29T08:22:35;3.22;;;1.17;;
46607;SDS011;32330;51.936;7.184;2024-03-29T08:25:02;5.07;;;1.65;;
46607;SDS011;32330;51.936;7.184;2024-03-29T08:27:29;2.80;;;1.10;;
46607;SDS011;32330;51.936;7.184;2024-03-29T08:29:57;3.40;;;1.40;;
46607;SDS011;32330;51.936;7.184;2024-03-29T08:32:24;4.00;;;1.65;;
46607;SDS011;32330;51.936;7.184;2024-03-29T08:34:51;6.72;;;1.50;;
46607;SDS011;32330;51.936;7.184;2024-03-29T08:37:17;4.60;;;1.38;;
46607;SDS011;32330;51.936;7.184;2024-03-29T08:39:46;5.32;;;1.38;;
46607;SDS011;32330;51.936;7.184;2024-03-29T08:42:13;3.38;;;1.08;;
46607;SDS011;32330;51.936;7.184;2024-03-29T08:44:42;3.75;;;1.58;;
46607;SDS011;32330;51.936;7.184;2024-03-29T08:47:09;2.50;;;1.25;;
46607;SDS011;32330;51.936;7.184;2024-03-29T08:49:37;5.38;;;1.60;;
46607;SDS011;32330;51.936;7.184;2024-03-29T08:52:05;3.95;;;1.90;;
46607;SDS011;32330;51.936;7.184;2024-03-29T08:54:32;4.63;;;1.50;;
46607;SDS011;32330;51.936;7.184;2024-03-29T08:57:01;4.97;;;2.65;;
46607;SDS011;32330;51.936;7.184;2024-03-29T08:59:29;4.40;;;2.50;;
46607;SDS011;32330;51.936;7.184;2024-03-29T09:02:03;5.72;;;2.50;;
46607;SDS011;32330;51.936;7.184;2024-03-29T09:04:32;6.05;;;2.30;;
46607;SDS011;32330;51.936;7.184;2024-03-29T09:07:00;5.03;;;1.83;;
46607;SDS011;32330;51.936;7.184;2024-03-29T09:10:16;2.65;;;1.40;;
46607;SDS011;32330;51.936;7.184;2024-03-29T09:12:52;5.53;;;1.63;;
46607;SDS011;32330;51.936;7.184;2024-03-29T09:15:20;3.67;;;1.30;;
46607;SDS011;32330;51.936;7.184;2024-03-29T09:17:56;3.45;;;1.50;;
46607;SDS011;32330;51.936;7.184;2024-03-29T09:20:36;3.90;;;1.48;;
46607;SDS011;32330;51.936;7.184;2024-03-29T09:23:03;4.05;;;1.80;;
46607;SDS011;32330;51.936;7.184;2024-03-29T09:25:31;4.75;;;1.70;;
46607;SDS011;32330;51.936;7.184;2024-03-29T09:27:59;3.70;;;2.35;;
46607;SDS011;32330;51.936;7.184;2024-03-29T09:30:26;2.42;;;1.23;;
46607;SDS011;32330;51.936;7.184;2024-03-29T09:32:54;4.15;;;1.65;;
46607;SDS011;32330;51.936;7.184;2024-03-29T09:35:20;5.00;;;1.60;;
46607;SDS011;32330;51.936;7.184;2024-03-29T09:37:47;4.50;;;1.90;;
46607;SDS011;32330;51.936;7.184;2024-03-29T09:40:14;4.05;;;2.45;;
46607;SDS011;32330;51.936;7.184;2024-03-29T09:42:43;4.35;;;1.92;;
46607;SDS011;32330;51.936;7.184;2024-03-29T09:45:13;3.08;;;1.90;;
46607;SDS011;32330;51.936;7.184;2024-03-29T09:47:41;2.92;;;2.17;;
46607;SDS011;32330;51.936;7.184;2024-03-29T09:50:09;4.22;;;2.72;;
46607;SDS011;32330;51.936;7.184;2024-03-29T09:52:38;3.20;;;2.47;;
46607;SDS011;32330;51.936;7.184;2024-03-29T09:55:07;5.57;;;2.70;;
46607;SDS011;32330;51.936;7.184;2024-03-29T09:57:35;4.45;;;2.72;;
46607;SDS011;32330;51.936;7.184;2024-03-29T10:00:03;4.47;;;3.17;;
46607;SDS011;32330;51.936;7.184;2024-03-29T10:02:32;3.38;;;2.95;;
46607;SDS011;32330;51.936;7.184;2024-03-29T10:05:01;4.63;;;2.97;;
46607;SDS011;32330;51.936;7.184;2024-03-29T10:10:01;5.00;;;3.25;;
46607;SDS011;32330;51.936;7.184;2024-03-29T10:12:29;5.45;;;3.10;;
46607;SDS011;32330;51.936;7.184;2024-03-29T10:14:56;3.42;;;2.40;;
46607;SDS011;32330;51.936;7.184;2024-03-29T10:17:35;4.13;;;2.25;;
46607;SDS011;32330;51.936;7.184;2024-03-29T10:20:03;3.67;;;2.67;;
46607;SDS011;32330;51.936;7.184;2024-03-29T10:22:35;4.72;;;3.47;;
46607;SDS011;32330;51.936;7.184;2024-03-29T10:27:30;4.82;;;3.67;;
46607;SDS011;32330;51.936;7.184;2024-03-29T10:29:57;6.50;;;4.25;;
46607;SDS011;32330;51.936;7.184;2024-03-29T10:32:25;4.85;;;3.75;;
46607;SDS011;32330;51.936;7.184;2024-03-29T10:34:53;4.45;;;3.40;;
46607;SDS011;32330;51.936;7.184;2024-03-29T10:37:20;4.85;;;3.97;;
46607;SDS011;32330;51.936;7.184;2024-03-29T10:39:52;4.90;;;3.83;;
46607;SDS011;32330;51.936;7.184;2024-03-29T10:42:19;3.90;;;3.55;;
46607;SDS011;32330;51.936;7.184;2024-03-29T10:44:48;6.25;;;3.75;;
46607;SDS011;32330;51.936;7.184;2024-03-29T10:47:17;5.13;;;3.80;;
46607;SDS011;32330;51.936;7.184;2024-03-29T10:49:46;6.22;;;3.55;;
46607;SDS011;32330;51.936;7.184;2024-03-29T10:52:18;5.57;;;3.90;;
46607;SDS011;32330;51.936;7.184;2024-03-29T10:54:47;4.57;;;3.40;;
46607;SDS011;32330;51.936;7.184;2024-03-29T10:57:16;3.45;;;3.08;;
46607;SDS011;32330;51.936;7.184;2024-03-29T10:59:50;5.07;;;2.85;;
46607;SDS011;32330;51.936;7.184;2024-03-29T11:02:35;4.70;;;3.03;;
46607;SDS011;32330;51.936;7.184;2024-03-29T11:05:11;5.03;;;2.40;;
46607;SDS011;32330;51.936;7.184;2024-03-29T11:10:11;4.63;;;2.33;;
46607;SDS011;32330;51.936;7.184;2024-03-29T11:12:45;3.20;;;1.83;;
46607;SDS011;32330;51.936;7.184;2024-03-29T11:15:22;3.60;;;1.80;;
46607;SDS011;32330;51.936;7.184;2024-03-29T11:17:54;4.20;;;1.95;;
46607;SDS011;32330;51.936;7.184;2024-03-29T11:24:38;2.38;;;1.20;;
46607;SDS011;32330;51.936;7.184;2024-03-29T11:27:09;5.03;;;1.30;;
46607;SDS011;32330;51.936;7.184;2024-03-29T11:29:42;3.65;;;1.20;;
46607;SDS011;32330;51.936;7.184;2024-03-29T11:32:11;2.78;;;1.40;;
46607;SDS011;32330;51.936;7.184;2024-03-29T11:34:44;2.60;;;1.17;;
46607;SDS011;32330;51.936;7.184;2024-03-29T11:37:19;2.25;;;1.10;;
46607;SDS011;32330;51.936;7.184;2024-03-29T11:39:49;2.08;;;1.00;;
46607;SDS011;32330;51.936;7.184;2024-03-29T11:42:17;2.25;;;1.05;;
46607;SDS011;32330;51.936;7.184;2024-03-29T11:44:53;3.78;;;1.20;;
46607;SDS011;32330;51.936;7.184;2024-03-29T11:47:21;1.35;;;0.80;;
46607;SDS011;32330;51.936;7.184;2024-03-29T11:50:07;1.30;;;0.70;;
46607;SDS011;32330;51.936;7.184;2024-03-29T11:52:35;2.20;;;1.00;;
46607;SDS011;32330;51.936;7.184;2024-03-29T11:55:07;3.38;;;1.17;;
46607;SDS011;32330;51.936;7.184;2024-03-29T11:57:40;2.80;;;2.08;;
46607;SDS011;32330;51.936;7.184;2024-03-29T12:00:10;2.58;;;1.15;;
46607;SDS011;32330;51.936;7.184;2024-03-29T12:02:39;3.50;;;1.60;;
46607;SDS011;32330;51.936;7.184;2024-03-29T12:05:09;9.43;;;7.38;;
46607;SDS011;32330;51.936;7.184;2024-03-29T12:07:38;3.17;;;1.20;;
46607;SDS011;32330;51.936;7.184;2024-03-29T12:10:17;4.32;;;1.42;;
46607;SDS011;32330;51.936;7.184;2024-03-29T12:12:44;2.85;;;1.30;;
46607;SDS011;32330;51.936;7.184;2024-03-29T12:15:12;2.45;;;1.35;;
46607;SDS011;32330;51.936;7.184;2024-03-29T12:17:41;2.40;;;1.10;;
46607;SDS011;32330;51.936;7.184;2024-03-29T12:20:14;3.10;;;1.20;;
46607;SDS011;32330;51.936;7.184;2024-03-29T12:22:42;2.08;;;0.95;;
46607;SDS011;32330;51.936;7.184;2024-03-29T12:25:09;2.58;;;1.17;;
46607;SDS011;32330;51.936;7.184;2024-03-29T12:27:38;2.42;;;1.20;;
46607;SDS011;32330;51.936;7.184;2024-03-29T12:30:10;2.88;;;2.45;;
46607;SDS011;32330;51.936;7.184;2024-03-29T12:32:39;2.20;;;0.90;;
46607;SDS011;32330;51.936;7.184;2024-03-29T12:35:07;2.08;;;0.98;;
46607;SDS011;32330;51.936;7.184;2024-03-29T12:37:36;2.22;;;1.08;;
46607;SDS011;32330;51.936;7.184;2024-03-29T12:40:05;2.78;;;1.30;;
46607;SDS011;32330;51.936;7.184;2024-03-29T12:42:39;4.80;;;1.38;;
46607;SDS011;32330;51.936;7.184;2024-03-29T12:45:07;3.05;;;1.73;;
46607;SDS011;32330;51.936;7.184;2024-03-29T12:47:36;3.17;;;0.93;;
46607;SDS011;32330;51.936;7.184;2024-03-29T12:50:03;2.88;;;1.67;;
46607;SDS011;32330;51.936;7.184;2024-03-29T12:52:40;1.27;;;0.60;;
46607;SDS011;32330;51.936;7.184;2024-03-29T12:55:08;1.83;;;1.08;;
46607;SDS011;32330;51.936;7.184;2024-03-29T12:57:37;2.25;;;1.02;;
46607;SDS011;32330;51.936;7.184;2024-03-29T13:00:10;2.13;;;1.20;;
46607;SDS011;32330;51.936;7.184;2024-03-29T13:02:49;2.33;;;1.55;;
46607;SDS011;32330;51.936;7.184;2024-03-29T13:05:17;2.75;;;1.50;;
46607;SDS011;32330;51.936;7.184;2024-03-29T13:07:44;2.95;;;1.75;;
46607;SDS011;32330;51.936;7.184;2024-03-29T13:10:12;3.42;;;2.47;;
46607;SDS011;32330;51.936;7.184;2024-03-29T13:12:40;5.25;;;2.95;;
46607;SDS011;32330;51.936;7.184;2024-03-29T13:15:18;3.53;;;2.63;;
46607;SDS011;32330;51.936;7.184;2024-03-29T13:17:46;3.10;;;1.95;;
46607;SDS011;32330;51.936;7.184;2024-03-29T13:20:16;3.90;;;1.90;;
46607;SDS011;32330;51.936;7.184;2024-03-29T13:22:45;2.47;;;1.40;;
46607;SDS011;32330;51.936;7.184;2024-03-29T13:25:14;3.47;;;2.30;;
46607;SDS011;32330;51.936;7.184;2024-03-29T13:27:43;3.22;;;2.38;;
46607;SDS011;32330;51.936;7.184;2024-03-29T13:30:14;1.67;;;1.00;;
46607;SDS011;32330;51.936;7.184;2024-03-29T13:32:46;2.55;;;1.00;;
46607;SDS011;32330;51.936;7.184;2024-03-29T13:35:14;3.30;;;2.33;;
46607;SDS011;32330;51.936;7.184;2024-03-29T13:37:42;3.45;;;1.40;;
46607;SDS011;32330;51.936;7.184;2024-03-29T13:40:11;1.77;;;0.80;;
46607;SDS011;32330;51.936;7.184;2024-03-29T13:42:39;3.65;;;0.80;;
46607;SDS011;32330;51.936;7.184;2024-03-29T13:45:21;1.45;;;0.82;;
46607;SDS011;32330;51.936;7.184;2024-03-29T13:47:53;2.25;;;0.80;;
46607;SDS011;32330;51.936;7.184;2024-03-29T13:50:20;1.83;;;1.30;;
46607;SDS011;32330;51.936;7.184;2024-03-29T13:52:48;2.35;;;1.00;;
46607;SDS011;32330;51.936;7.184;2024-03-29T13:55:17;2.85;;;1.00;;
46607;SDS011;32330;51.936;7.184;2024-03-29T13:57:44;1.80;;;0.60;;
46607;SDS011;32330;51.936;7.184;2024-03-29T14:00:11;1.48;;;0.63;;
46607;SDS011;32330;51.936;7.184;2024-03-29T14:02:43;2.03;;;0.85;;
46607;SDS011;32330;51.936;7.184;2024-03-29T14:05:11;1.35;;;0.63;;
46607;SDS011;32330;51.936;7.184;2024-03-29T14:07:39;1.48;;;0.63;;
46607;SDS011;32330;51.936;7.184;2024-03-29T14:10:06;1.05;;;0.60;;
46607;SDS011;32330;51.936;7.184;2024-03-29T14:12:34;1.80;;;0.70;;
46607;SDS011;32330;51.936;7.184;2024-03-29T14:15:02;1.83;;;1.00;;
46607;SDS011;32330;51.936;7.184;2024-03-29T14:17:31;2.83;;;0.70;;
46607;SDS011;32330;51.936;7.184;2024-03-29T14:19:59;1.83;;;0.90;;
46607;SDS011;32330;51.936;7.184;2024-03-29T14:22:27;1.67;;;0.73;;
46607;SDS011;32330;51.936;7.184;2024-03-29T14:24:56;1.75;;;0.95;;
46607;SDS011;32330;51.936;7.184;2024-03-29T14:27:24;1.92;;;0.68;;
46607;SDS011;32330;51.936;7.184;2024-03-29T14:29:52;1.75;;;0.80;;
46607;SDS011;32330;51.936;7.184;2024-03-29T14:34:47;2.70;;;0.80;;
46607;SDS011;32330;51.936;7.184;2024-03-29T14:37:16;3.67;;;0.98;;
46607;SDS011;32330;51.936;7.184;2024-03-29T14:39:43;1.63;;;0.80;;
46607;SDS011;32330;51.936;7.184;2024-03-29T14:42:10;3.55;;;1.05;;
46607;SDS011;32330;51.936;7.184;2024-03-29T14:44:43;2.08;;;0.80;;
46607;SDS011;32330;51.936;7.184;2024-03-29T14:47:10;3.28;;;1.00;;
46607;SDS011;32330;51.936;7.184;2024-03-29T14:49:37;2.30;;;1.05;;
46607;SDS011;32330;51.936;7.184;2024-03-29T14:52:05;2.67;;;0.77;;
46607;SDS011;32330;51.936;7.184;2024-03-29T14:54:35;2.80;;;0.80;;
46607;SDS011;32330;51.936;7.184;2024-03-29T14:57:02;4.07;;;1.13;;
46607;SDS011;32330;51.936;7.184;2024-03-29T14:59:30;3.30;;;1.30;;
46607;SDS011;32330;51.936;7.184;2024-03-29T15:01:59;2.05;;;1.27;;
46607;SDS011;32330;51.936;7.184;2024-03-29T15:04:27;2.75;;;1.10;;
46607;SDS011;32330;51.936;7.184;2024-03-29T15:06:54;3.17;;;0.90;;
46607;SDS011;32330;51.936;7.184;2024-03-29T15:09:21;4.40;;;2.40;;